sensor_id;sensor_type;location;lat;lon;timestamp;P1;durP1;ratioP1;P2;durP2;ratioP2
29816;SDS011;16805;52.956;5.906;2023-07-29T00:00:56;5.75;;;5.25;;
29816;SDS011;16805;52.956;5.906;2023-07-29T00:03:22;4.90;;;4.30;;
29816;SDS011;16805;52.956;5.906;2023-07-29T00:05:48;5.85;;;5.32;;
29816;SDS011;16805;52.956;5.906;2023-07-29T00:08:14;5.93;;;5.00;;
29816;SDS011;16805;52.956;5.906;2023-07-29T00:10:39;5.20;;;4.05;;
29816;SDS011;16805;52.956;5.906;2023-07-29T00:13:05;4.88;;;4.38;;
29816;SDS011;16805;52.956;5.906;2023-07-29T00:15:32;5.50;;;5.00;;
29816;SDS011;16805;52.956;5.906;2023-07-29T00:17:58;5.57;;;4.43;;
29816;SDS011;16805;52.956;5.906;2023-07-29T00:20:23;6.15;;;5.55;;
29816;SDS011;16805;52.956;5.906;2023-07-29T00:22:49;5.85;;;5.25;;
29816;SDS011;16805;52.956;5.906;2023-07-29T00:25:18;5.88;;;5.25;;
29816;SDS011;16805;52.956;5.906;2023-07-29T00:27:43;5.90;;;5.07;;
29816;SDS011;16805;52.956;5.906;2023-07-29T00:30:09;6.28;;;5.68;;
29816;SDS011;16805;52.956;5.906;2023-07-29T00:32:35;8.90;;;5.65;;
29816;SDS011;16805;52.956;5.906;2023-07-29T00:35:01;6.15;;;5.55;;
29816;SDS011;16805;52.956;5.906;2023-07-29T00:37:27;5.40;;;4.90;;
29816;SDS011;16805;52.956;5.906;2023-07-29T00:39:55;5.38;;;4.85;;
29816;SDS011;16805;52.956;5.906;2023-07-29T00:42:21;5.90;;;5.30;;
29816;SDS011;16805;52.956;5.906;2023-07-29T00:44:46;6.38;;;5.78;;
29816;SDS011;16805;52.956;5.906;2023-07-29T00:47:13;7.65;;;5.82;;
29816;SDS011;16805;52.956;5.906;2023-07-29T00:49:41;5.70;;;5.20;;
29816;SDS011;16805;52.956;5.906;2023-07-29T00:52:08;5.20;;;4.70;;
29816;SDS011;16805;52.956;5.906;2023-07-29T00:54:37;5.82;;;5.22;;
29816;SDS011;16805;52.956;5.906;2023-07-29T00:57:06;6.28;;;5.57;;
29816;SDS011;16805;52.956;5.906;2023-07-29T00:59:35;4.53;;;4.10;;
29816;SDS011;16805;52.956;5.906;2023-07-29T01:02:01;7.38;;;4.70;;
29816;SDS011;16805;52.956;5.906;2023-07-29T01:04:27;5.43;;;4.93;;
29816;SDS011;16805;52.956;5.906;2023-07-29T01:06:56;6.15;;;4.93;;
29816;SDS011;16805;52.956;5.906;2023-07-29T01:09:49;5.57;;;5.03;;
29816;SDS011;16805;52.956;5.906;2023-07-29T01:12:22;9.15;;;5.00;;
29816;SDS011;16805;52.956;5.906;2023-07-29T01:17:48;5.82;;;4.68;;
29816;SDS011;16805;52.956;5.906;2023-07-29T01:20:19;5.68;;;5.07;;
29816;SDS011;16805;52.956;5.906;2023-07-29T01:22:46;5.25;;;4.75;;
29816;SDS011;16805;52.956;5.906;2023-07-29T01:25:16;4.65;;;4.22;;
29816;SDS011;16805;52.956;5.906;2023-07-29T01:27:43;4.90;;;4.22;;
29816;SDS011;16805;52.956;5.906;2023-07-29T01:30:09;5.03;;;4.57;;
29816;SDS011;16805;52.956;5.906;2023-07-29T01:33:09;6.07;;;4.45;;
29816;SDS011;16805;52.956;5.906;2023-07-29T01:35:40;4.78;;;4.25;;
29816;SDS011;16805;52.956;5.906;2023-07-29T01:38:13;6.03;;;4.57;;
29816;SDS011;16805;52.956;5.906;2023-07-29T01:40:43;5.35;;;4.15;;
29816;SDS011;16805;52.956;5.906;2023-07-29T01:43:10;4.68;;;4.25;;
29816;SDS011;16805;52.956;5.906;2023-07-29T01:45:36;4.70;;;4.28;;
29816;SDS011;16805;52.956;5.906;2023-07-29T01:48:06;4.65;;;3.75;;
29816;SDS011;16805;52.956;5.906;2023-07-29T01:50:33;5.18;;;4.03;;
29816;SDS011;16805;52.956;5.906;2023-07-29T01:53:01;4.03;;;3.55;;
29816;SDS011;16805;52.956;5.906;2023-07-29T01:55:27;9.18;;;4.00;;
29816;SDS011;16805;52.956;5.906;2023-07-29T01:57:56;3.55;;;2.80;;
29816;SDS011;16805;52.956;5.906;2023-07-29T02:00:22;5.05;;;3.38;;
29816;SDS011;16805;52.956;5.906;2023-07-29T02:02:47;4.15;;;3.75;;
29816;SDS011;16805;52.956;5.906;2023-07-29T02:05:13;5.70;;;3.80;;
29816;SDS011;16805;52.956;5.906;2023-07-29T02:07:39;4.43;;;2.95;;
29816;SDS011;16805;52.956;5.906;2023-07-29T02:10:05;4.22;;;3.15;;
29816;SDS011;16805;52.956;5.906;2023-07-29T02:12:31;4.03;;;3.53;;
29816;SDS011;16805;52.956;5.906;2023-07-29T02:14:56;5.32;;;4.03;;
29816;SDS011;16805;52.956;5.906;2023-07-29T02:17:22;6.75;;;3.42;;
29816;SDS011;16805;52.956;5.906;2023-07-29T02:19:48;5.30;;;2.50;;
29816;SDS011;16805;52.956;5.906;2023-07-29T02:22:14;4.47;;;2.92;;
29816;SDS011;16805;52.956;5.906;2023-07-29T02:24:42;3.15;;;2.53;;
29816;SDS011;16805;52.956;5.906;2023-07-29T02:27:08;3.47;;;2.88;;
29816;SDS011;16805;52.956;5.906;2023-07-29T02:29:34;4.63;;;2.80;;
29816;SDS011;16805;52.956;5.906;2023-07-29T02:31:59;3.50;;;3.20;;
29816;SDS011;16805;52.956;5.906;2023-07-29T02:34:25;3.33;;;2.65;;
29816;SDS011;16805;52.956;5.906;2023-07-29T02:36:51;3.42;;;2.90;;
29816;SDS011;16805;52.956;5.906;2023-07-29T02:39:16;7.25;;;2.83;;
29816;SDS011;16805;52.956;5.906;2023-07-29T02:41:42;4.05;;;2.85;;
29816;SDS011;16805;52.956;5.906;2023-07-29T02:44:08;3.40;;;2.45;;
29816;SDS011;16805;52.956;5.906;2023-07-29T02:46:33;3.55;;;3.08;;
29816;SDS011;16805;52.956;5.906;2023-07-29T02:48:59;2.83;;;2.33;;
29816;SDS011;16805;52.956;5.906;2023-07-29T02:51:26;4.50;;;2.55;;
29816;SDS011;16805;52.956;5.906;2023-07-29T02:53:52;4.32;;;2.88;;
29816;SDS011;16805;52.956;5.906;2023-07-29T02:56:17;2.85;;;2.38;;
29816;SDS011;16805;52.956;5.906;2023-07-29T02:58:43;2.22;;;2.03;;
29816;SDS011;16805;52.956;5.906;2023-07-29T03:01:12;4.00;;;2.42;;
29816;SDS011;16805;52.956;5.906;2023-07-29T03:03:38;2.65;;;1.80;;
29816;SDS011;16805;52.956;5.906;2023-07-29T03:06:05;2.85;;;1.92;;
29816;SDS011;16805;52.956;5.906;2023-07-29T03:08:33;3.13;;;2.00;;
29816;SDS011;16805;52.956;5.906;2023-07-29T03:10:59;2.33;;;1.98;;
29816;SDS011;16805;52.956;5.906;2023-07-29T03:13:31;8.63;;;2.15;;
29816;SDS011;16805;52.956;5.906;2023-07-29T03:18:42;2.47;;;1.80;;
29816;SDS011;16805;52.956;5.906;2023-07-29T03:21:08;6.65;;;2.17;;
29816;SDS011;16805;52.956;5.906;2023-07-29T03:23:34;3.58;;;1.70;;
29816;SDS011;16805;52.956;5.906;2023-07-29T03:26:01;2.33;;;1.55;;
29816;SDS011;16805;52.956;5.906;2023-07-29T03:28:30;3.33;;;2.10;;
29816;SDS011;16805;52.956;5.906;2023-07-29T03:30:57;3.97;;;2.25;;
29816;SDS011;16805;52.956;5.906;2023-07-29T03:33:24;5.70;;;1.83;;
29816;SDS011;16805;52.956;5.906;2023-07-29T03:35:53;3.22;;;1.73;;
29816;SDS011;16805;52.956;5.906;2023-07-29T03:38:18;4.93;;;1.77;;
29816;SDS011;16805;52.956;5.906;2023-07-29T03:40:44;2.28;;;1.67;;
29816;SDS011;16805;52.956;5.906;2023-07-29T03:43:10;3.80;;;1.77;;
29816;SDS011;16805;52.956;5.906;2023-07-29T03:45:36;2.90;;;1.52;;
29816;SDS011;16805;52.956;5.906;2023-07-29T03:48:03;2.17;;;1.33;;
29816;SDS011;16805;52.956;5.906;2023-07-29T03:50:29;2.40;;;1.38;;
29816;SDS011;16805;52.956;5.906;2023-07-29T03:52:55;1.70;;;1.38;;
29816;SDS011;16805;52.956;5.906;2023-07-29T03:55:21;2.13;;;1.33;;
29816;SDS011;16805;52.956;5.906;2023-07-29T03:57:47;2.22;;;1.63;;
29816;SDS011;16805;52.956;5.906;2023-07-29T04:00:13;1.48;;;1.30;;
29816;SDS011;16805;52.956;5.906;2023-07-29T04:02:39;6.90;;;1.30;;
29816;SDS011;16805;52.956;5.906;2023-07-29T04:05:06;3.53;;;1.40;;
29816;SDS011;16805;52.956;5.906;2023-07-29T04:07:33;2.33;;;1.48;;
29816;SDS011;16805;52.956;5.906;2023-07-29T04:10:02;2.85;;;1.10;;
29816;SDS011;16805;52.956;5.906;2023-07-29T04:12:29;2.53;;;1.10;;
29816;SDS011;16805;52.956;5.906;2023-07-29T04:14:55;3.25;;;1.73;;
29816;SDS011;16805;52.956;5.906;2023-07-29T04:17:21;1.58;;;1.02;;
29816;SDS011;16805;52.956;5.906;2023-07-29T04:19:47;4.68;;;1.30;;
29816;SDS011;16805;52.956;5.906;2023-07-29T04:22:12;2.20;;;1.10;;
29816;SDS011;16805;52.956;5.906;2023-07-29T04:24:41;1.90;;;1.23;;
29816;SDS011;16805;52.956;5.906;2023-07-29T04:27:07;2.08;;;1.20;;
29816;SDS011;16805;52.956;5.906;2023-07-29T04:29:33;2.03;;;1.30;;
29816;SDS011;16805;52.956;5.906;2023-07-29T04:32:00;1.20;;;1.02;;
29816;SDS011;16805;52.956;5.906;2023-07-29T04:34:29;4.95;;;1.30;;
29816;SDS011;16805;52.956;5.906;2023-07-29T04:36:55;1.90;;;1.00;;
29816;SDS011;16805;52.956;5.906;2023-07-29T04:39:21;1.27;;;1.00;;
29816;SDS011;16805;52.956;5.906;2023-07-29T04:41:46;2.40;;;1.30;;
29816;SDS011;16805;52.956;5.906;2023-07-29T04:44:12;2.70;;;1.10;;
29816;SDS011;16805;52.956;5.906;2023-07-29T04:46:38;2.17;;;1.45;;
29816;SDS011;16805;52.956;5.906;2023-07-29T04:49:04;4.50;;;1.70;;
29816;SDS011;16805;52.956;5.906;2023-07-29T04:51:30;2.40;;;1.23;;
29816;SDS011;16805;52.956;5.906;2023-07-29T04:53:59;1.55;;;1.02;;
29816;SDS011;16805;52.956;5.906;2023-07-29T04:56:24;1.83;;;1.23;;
29816;SDS011;16805;52.956;5.906;2023-07-29T04:58:51;2.45;;;1.10;;
29816;SDS011;16805;52.956;5.906;2023-07-29T05:01:17;2.20;;;1.27;;
29816;SDS011;16805;52.956;5.906;2023-07-29T05:03:43;2.30;;;1.33;;
29816;SDS011;16805;52.956;5.906;2023-07-29T05:06:09;1.42;;;1.30;;
29816;SDS011;16805;52.956;5.906;2023-07-29T05:08:34;4.35;;;1.20;;
29816;SDS011;16805;52.956;5.906;2023-07-29T05:11:00;2.30;;;0.93;;
29816;SDS011;16805;52.956;5.906;2023-07-29T05:13:26;5.30;;;1.23;;
29816;SDS011;16805;52.956;5.906;2023-07-29T05:15:51;2.75;;;1.17;;
29816;SDS011;16805;52.956;5.906;2023-07-29T05:18:17;3.53;;;1.23;;
29816;SDS011;16805;52.956;5.906;2023-07-29T05:20:43;2.08;;;0.90;;
29816;SDS011;16805;52.956;5.906;2023-07-29T05:23:09;1.85;;;1.02;;
29816;SDS011;16805;52.956;5.906;2023-07-29T05:25:36;2.75;;;1.35;;
29816;SDS011;16805;52.956;5.906;2023-07-29T05:28:01;2.15;;;1.35;;
29816;SDS011;16805;52.956;5.906;2023-07-29T05:30:28;3.10;;;1.58;;
29816;SDS011;16805;52.956;5.906;2023-07-29T05:32:59;2.78;;;1.48;;
29816;SDS011;16805;52.956;5.906;2023-07-29T05:35:25;2.70;;;1.40;;
29816;SDS011;16805;52.956;5.906;2023-07-29T05:37:51;2.47;;;1.40;;
29816;SDS011;16805;52.956;5.906;2023-07-29T05:40:17;2.80;;;1.25;;
29816;SDS011;16805;52.956;5.906;2023-07-29T05:42:42;8.52;;;1.38;;
29816;SDS011;16805;52.956;5.906;2023-07-29T05:45:10;6.03;;;1.50;;
29816;SDS011;16805;52.956;5.906;2023-07-29T05:47:35;3.47;;;1.33;;
29816;SDS011;16805;52.956;5.906;2023-07-29T05:50:01;1.90;;;1.25;;
29816;SDS011;16805;52.956;5.906;2023-07-29T05:52:29;5.13;;;1.42;;
29816;SDS011;16805;52.956;5.906;2023-07-29T05:54:55;3.10;;;1.48;;
29816;SDS011;16805;52.956;5.906;2023-07-29T05:57:21;3.45;;;1.42;;
29816;SDS011;16805;52.956;5.906;2023-07-29T05:59:47;2.72;;;1.70;;
29816;SDS011;16805;52.956;5.906;2023-07-29T06:02:13;4.75;;;1.80;;
29816;SDS011;16805;52.956;5.906;2023-07-29T06:04:38;3.72;;;1.50;;
29816;SDS011;16805;52.956;5.906;2023-07-29T06:07:05;5.47;;;1.30;;
29816;SDS011;16805;52.956;5.906;2023-07-29T06:09:31;3.35;;;1.40;;
29816;SDS011;16805;52.956;5.906;2023-07-29T06:11:56;3.75;;;1.50;;
29816;SDS011;16805;52.956;5.906;2023-07-29T06:14:22;2.95;;;1.27;;
29816;SDS011;16805;52.956;5.906;2023-07-29T06:16:48;6.85;;;1.63;;
29816;SDS011;16805;52.956;5.906;2023-07-29T06:19:14;2.00;;;1.38;;
29816;SDS011;16805;52.956;5.906;2023-07-29T06:21:39;6.75;;;1.70;;
29816;SDS011;16805;52.956;5.906;2023-07-29T06:24:05;3.80;;;1.70;;
29816;SDS011;16805;52.956;5.906;2023-07-29T06:26:30;4.00;;;1.20;;
29816;SDS011;16805;52.956;5.906;2023-07-29T06:28:56;1.92;;;1.27;;
29816;SDS011;16805;52.956;5.906;2023-07-29T06:31:22;3.13;;;1.10;;
29816;SDS011;16805;52.956;5.906;2023-07-29T06:33:47;5.78;;;1.15;;
29816;SDS011;16805;52.956;5.906;2023-07-29T06:36:13;3.80;;;1.20;;
29816;SDS011;16805;52.956;5.906;2023-07-29T06:38:39;2.15;;;1.10;;
29816;SDS011;16805;52.956;5.906;2023-07-29T06:41:06;7.72;;;1.20;;
29816;SDS011;16805;52.956;5.906;2023-07-29T06:43:31;2.00;;;1.42;;
29816;SDS011;16805;52.956;5.906;2023-07-29T06:45:57;3.83;;;1.65;;
29816;SDS011;16805;52.956;5.906;2023-07-29T06:48:23;5.13;;;1.60;;
29816;SDS011;16805;52.956;5.906;2023-07-29T06:50:49;5.57;;;1.20;;
29816;SDS011;16805;52.956;5.906;2023-07-29T06:53:15;7.57;;;1.52;;
29816;SDS011;16805;52.956;5.906;2023-07-29T06:55:42;2.38;;;1.30;;
29816;SDS011;16805;52.956;5.906;2023-07-29T06:58:08;7.60;;;1.25;;
29816;SDS011;16805;52.956;5.906;2023-07-29T07:00:34;5.20;;;1.58;;
29816;SDS011;16805;52.956;5.906;2023-07-29T07:03:00;4.35;;;1.30;;
29816;SDS011;16805;52.956;5.906;2023-07-29T07:05:26;2.78;;;1.20;;
29816;SDS011;16805;52.956;5.906;2023-07-29T07:07:51;3.00;;;1.10;;
29816;SDS011;16805;52.956;5.906;2023-07-29T07:10:17;3.42;;;1.52;;
29816;SDS011;16805;52.956;5.906;2023-07-29T07:12:44;4.93;;;1.33;;
29816;SDS011;16805;52.956;5.906;2023-07-29T07:15:10;5.28;;;1.10;;
29816;SDS011;16805;52.956;5.906;2023-07-29T07:17:35;2.78;;;1.23;;
29816;SDS011;16805;52.956;5.906;2023-07-29T07:20:01;2.58;;;1.23;;
29816;SDS011;16805;52.956;5.906;2023-07-29T07:22:28;2.90;;;1.75;;
29816;SDS011;16805;52.956;5.906;2023-07-29T07:24:54;2.90;;;1.35;;
29816;SDS011;16805;52.956;5.906;2023-07-29T07:27:20;4.97;;;1.17;;
29816;SDS011;16805;52.956;5.906;2023-07-29T07:29:45;1.25;;;1.13;;
29816;SDS011;16805;52.956;5.906;2023-07-29T07:32:11;3.63;;;1.45;;
29816;SDS011;16805;52.956;5.906;2023-07-29T07:34:36;2.30;;;0.95;;
29816;SDS011;16805;52.956;5.906;2023-07-29T07:37:02;3.40;;;1.13;;
29816;SDS011;16805;52.956;5.906;2023-07-29T07:39:29;7.53;;;1.05;;
29816;SDS011;16805;52.956;5.906;2023-07-29T07:41:56;2.95;;;1.17;;
29816;SDS011;16805;52.956;5.906;2023-07-29T07:44:22;2.42;;;1.00;;
29816;SDS011;16805;52.956;5.906;2023-07-29T07:46:47;6.20;;;1.15;;
29816;SDS011;16805;52.956;5.906;2023-07-29T07:49:13;4.22;;;1.20;;
29816;SDS011;16805;52.956;5.906;2023-07-29T07:51:39;4.32;;;1.45;;
29816;SDS011;16805;52.956;5.906;2023-07-29T07:54:05;3.83;;;1.05;;
29816;SDS011;16805;52.956;5.906;2023-07-29T07:56:30;4.05;;;1.00;;
29816;SDS011;16805;52.956;5.906;2023-07-29T07:58:56;2.40;;;1.00;;
29816;SDS011;16805;52.956;5.906;2023-07-29T08:01:22;1.80;;;0.90;;
29816;SDS011;16805;52.956;5.906;2023-07-29T08:03:47;3.17;;;1.13;;
29816;SDS011;16805;52.956;5.906;2023-07-29T08:06:13;2.00;;;0.98;;
29816;SDS011;16805;52.956;5.906;2023-07-29T08:08:39;6.13;;;1.13;;
29816;SDS011;16805;52.956;5.906;2023-07-29T08:11:05;6.93;;;1.10;;
29816;SDS011;16805;52.956;5.906;2023-07-29T08:13:30;2.97;;;1.05;;
29816;SDS011;16805;52.956;5.906;2023-07-29T08:15:56;1.55;;;0.82;;
29816;SDS011;16805;52.956;5.906;2023-07-29T08:18:22;4.68;;;1.10;;
29816;SDS011;16805;52.956;5.906;2023-07-29T08:20:54;1.67;;;1.02;;
29816;SDS011;16805;52.956;5.906;2023-07-29T08:23:23;4.90;;;1.00;;
29816;SDS011;16805;52.956;5.906;2023-07-29T08:25:55;2.67;;;1.30;;
29816;SDS011;16805;52.956;5.906;2023-07-29T08:28:26;2.33;;;1.30;;
29816;SDS011;16805;52.956;5.906;2023-07-29T08:30:56;4.07;;;1.58;;
29816;SDS011;16805;52.956;5.906;2023-07-29T08:33:22;6.20;;;1.58;;
29816;SDS011;16805;52.956;5.906;2023-07-29T08:35:48;2.63;;;1.20;;
29816;SDS011;16805;52.956;5.906;2023-07-29T08:38:13;3.00;;;1.00;;
29816;SDS011;16805;52.956;5.906;2023-07-29T08:40:41;1.42;;;0.90;;
29816;SDS011;16805;52.956;5.906;2023-07-29T08:43:10;3.92;;;1.10;;
29816;SDS011;16805;52.956;5.906;2023-07-29T08:45:39;2.53;;;1.00;;
29816;SDS011;16805;52.956;5.906;2023-07-29T08:48:09;4.03;;;1.20;;
29816;SDS011;16805;52.956;5.906;2023-07-29T08:50:36;1.20;;;0.80;;
29816;SDS011;16805;52.956;5.906;2023-07-29T08:53:05;3.65;;;0.98;;
29816;SDS011;16805;52.956;5.906;2023-07-29T08:55:31;3.42;;;0.80;;
29816;SDS011;16805;52.956;5.906;2023-07-29T08:57:58;2.58;;;0.98;;
29816;SDS011;16805;52.956;5.906;2023-07-29T09:00:25;2.40;;;0.80;;
29816;SDS011;16805;52.956;5.906;2023-07-29T09:02:52;3.53;;;1.70;;
29816;SDS011;16805;52.956;5.906;2023-07-29T09:05:18;3.70;;;0.88;;
29816;SDS011;16805;52.956;5.906;2023-07-29T09:07:45;8.63;;;1.50;;
29816;SDS011;16805;52.956;5.906;2023-07-29T09:10:13;7.78;;;1.17;;
29816;SDS011;16805;52.956;5.906;2023-07-29T09:12:39;1.85;;;0.90;;
29816;SDS011;16805;52.956;5.906;2023-07-29T09:15:05;1.73;;;0.77;;
29816;SDS011;16805;52.956;5.906;2023-07-29T09:17:32;2.38;;;1.00;;
29816;SDS011;16805;52.956;5.906;2023-07-29T09:19:58;9.55;;;1.05;;
29816;SDS011;16805;52.956;5.906;2023-07-29T09:22:25;2.25;;;0.80;;
29816;SDS011;16805;52.956;5.906;2023-07-29T09:24:52;3.00;;;1.10;;
29816;SDS011;16805;52.956;5.906;2023-07-29T09:27:27;2.65;;;0.82;;
29816;SDS011;16805;52.956;5.906;2023-07-29T09:29:56;3.33;;;1.00;;
29816;SDS011;16805;52.956;5.906;2023-07-29T09:32:23;2.25;;;0.82;;
29816;SDS011;16805;52.956;5.906;2023-07-29T09:34:50;1.55;;;0.80;;
29816;SDS011;16805;52.956;5.906;2023-07-29T09:37:22;2.70;;;0.70;;
29816;SDS011;16805;52.956;5.906;2023-07-29T09:39:49;2.70;;;0.70;;
29816;SDS011;16805;52.956;5.906;2023-07-29T09:42:17;2.13;;;0.70;;
29816;SDS011;16805;52.956;5.906;2023-07-29T09:44:47;5.50;;;1.00;;
29816;SDS011;16805;52.956;5.906;2023-07-29T09:47:24;1.92;;;0.80;;
29816;SDS011;16805;52.956;5.906;2023-07-29T09:49:51;2.55;;;0.80;;
29816;SDS011;16805;52.956;5.906;2023-07-29T09:52:18;3.45;;;0.95;;
29816;SDS011;16805;52.956;5.906;2023-07-29T09:54:45;2.47;;;1.20;;
29816;SDS011;16805;52.956;5.906;2023-07-29T09:57:18;3.95;;;1.10;;
29816;SDS011;16805;52.956;5.906;2023-07-29T09:59:53;2.08;;;1.08;;
29816;SDS011;16805;52.956;5.906;2023-07-29T10:02:20;3.53;;;1.55;;
29816;SDS011;16805;52.956;5.906;2023-07-29T10:04:46;3.20;;;0.85;;
29816;SDS011;16805;52.956;5.906;2023-07-29T10:07:12;2.40;;;0.90;;
29816;SDS011;16805;52.956;5.906;2023-07-29T10:09:39;1.20;;;0.57;;
29816;SDS011;16805;52.956;5.906;2023-07-29T10:12:08;0.88;;;0.55;;
29816;SDS011;16805;52.956;5.906;2023-07-29T10:14:36;2.88;;;0.90;;
29816;SDS011;16805;52.956;5.906;2023-07-29T10:17:03;0.65;;;0.50;;
29816;SDS011;16805;52.956;5.906;2023-07-29T10:19:31;0.85;;;0.50;;
29816;SDS011;16805;52.956;5.906;2023-07-29T10:21:58;2.33;;;0.60;;
29816;SDS011;16805;52.956;5.906;2023-07-29T10:24:29;2.63;;;0.93;;
29816;SDS011;16805;52.956;5.906;2023-07-29T10:26:57;1.20;;;0.68;;
29816;SDS011;16805;52.956;5.906;2023-07-29T10:29:38;1.45;;;0.70;;
29816;SDS011;16805;52.956;5.906;2023-07-29T10:32:08;5.03;;;1.00;;
29816;SDS011;16805;52.956;5.906;2023-07-29T10:34:36;1.52;;;0.70;;
29816;SDS011;16805;52.956;5.906;2023-07-29T10:37:02;4.28;;;1.00;;
29816;SDS011;16805;52.956;5.906;2023-07-29T10:39:32;4.28;;;0.90;;
29816;SDS011;16805;52.956;5.906;2023-07-29T10:42:05;1.20;;;0.60;;
29816;SDS011;16805;52.956;5.906;2023-07-29T10:47:13;1.52;;;0.88;;
29816;SDS011;16805;52.956;5.906;2023-07-29T10:49:43;4.28;;;0.82;;
29816;SDS011;16805;52.956;5.906;2023-07-29T10:52:13;3.20;;;0.82;;
29816;SDS011;16805;52.956;5.906;2023-07-29T10:54:53;6.20;;;1.30;;
29816;SDS011;16805;52.956;5.906;2023-07-29T11:00:00;4.63;;;1.08;;
29816;SDS011;16805;52.956;5.906;2023-07-29T11:02:29;2.05;;;0.93;;
29816;SDS011;16805;52.956;5.906;2023-07-29T11:04:55;3.85;;;1.30;;
29816;SDS011;16805;52.956;5.906;2023-07-29T11:07:22;2.47;;;0.90;;
29816;SDS011;16805;52.956;5.906;2023-07-29T11:20:13;3.05;;;1.45;;
29816;SDS011;16805;52.956;5.906;2023-07-29T11:22:39;3.92;;;1.38;;
29816;SDS011;16805;52.956;5.906;2023-07-29T11:25:06;2.97;;;1.20;;
29816;SDS011;16805;52.956;5.906;2023-07-29T11:27:34;7.28;;;1.30;;
29816;SDS011;16805;52.956;5.906;2023-07-29T11:30:01;2.08;;;1.00;;
29816;SDS011;16805;52.956;5.906;2023-07-29T11:32:31;4.63;;;1.02;;
29816;SDS011;16805;52.956;5.906;2023-07-29T11:35:01;3.50;;;1.25;;
29816;SDS011;16805;52.956;5.906;2023-07-29T11:37:38;4.28;;;1.45;;
29816;SDS011;16805;52.956;5.906;2023-07-29T11:40:04;4.72;;;1.13;;
29816;SDS011;16805;52.956;5.906;2023-07-29T11:42:36;3.17;;;1.13;;
29816;SDS011;16805;52.956;5.906;2023-07-29T11:45:02;4.78;;;1.27;;
29816;SDS011;16805;52.956;5.906;2023-07-29T11:47:31;1.30;;;1.08;;
29816;SDS011;16805;52.956;5.906;2023-07-29T11:50:01;4.47;;;0.82;;
29816;SDS011;16805;52.956;5.906;2023-07-29T11:52:27;3.05;;;0.90;;
29816;SDS011;16805;52.956;5.906;2023-07-29T11:54:53;1.55;;;0.70;;
29816;SDS011;16805;52.956;5.906;2023-07-29T11:57:19;6.57;;;1.13;;
29816;SDS011;16805;52.956;5.906;2023-07-29T11:59:46;2.15;;;0.95;;
29816;SDS011;16805;52.956;5.906;2023-07-29T12:02:16;3.67;;;1.27;;
29816;SDS011;16805;52.956;5.906;2023-07-29T12:04:44;1.38;;;0.85;;
29816;SDS011;16805;52.956;5.906;2023-07-29T12:07:14;3.00;;;1.00;;
29816;SDS011;16805;52.956;5.906;2023-07-29T12:09:42;2.63;;;0.90;;
29816;SDS011;16805;52.956;5.906;2023-07-29T12:12:10;3.47;;;1.45;;
29816;SDS011;16805;52.956;5.906;2023-07-29T12:14:36;2.67;;;1.08;;
29816;SDS011;16805;52.956;5.906;2023-07-29T12:17:03;2.85;;;0.90;;
29816;SDS011;16805;52.956;5.906;2023-07-29T12:19:33;1.25;;;1.10;;
29816;SDS011;16805;52.956;5.906;2023-07-29T12:22:04;1.75;;;1.08;;
29816;SDS011;16805;52.956;5.906;2023-07-29T12:24:32;3.70;;;1.13;;
29816;SDS011;16805;52.956;5.906;2023-07-29T12:27:00;1.73;;;1.17;;
29816;SDS011;16805;52.956;5.906;2023-07-29T12:29:26;3.75;;;1.73;;
29816;SDS011;16805;52.956;5.906;2023-07-29T12:31:58;2.10;;;1.20;;
29816;SDS011;16805;52.956;5.906;2023-07-29T12:34:29;5.10;;;1.52;;
29816;SDS011;16805;52.956;5.906;2023-07-29T12:36:56;2.85;;;1.05;;
29816;SDS011;16805;52.956;5.906;2023-07-29T12:39:28;3.47;;;1.40;;
29816;SDS011;16805;52.956;5.906;2023-07-29T12:41:57;3.67;;;0.90;;
29816;SDS011;16805;52.956;5.906;2023-07-29T12:44:24;2.53;;;1.25;;
29816;SDS011;16805;52.956;5.906;2023-07-29T12:46:51;1.10;;;0.82;;
29816;SDS011;16805;52.956;5.906;2023-07-29T12:49:17;1.20;;;0.95;;
29816;SDS011;16805;52.956;5.906;2023-07-29T12:51:43;1.70;;;0.77;;
29816;SDS011;16805;52.956;5.906;2023-07-29T12:54:09;2.47;;;0.75;;
29816;SDS011;16805;52.956;5.906;2023-07-29T12:56:35;2.25;;;0.80;;
29816;SDS011;16805;52.956;5.906;2023-07-29T12:59:01;1.50;;;0.80;;
29816;SDS011;16805;52.956;5.906;2023-07-29T13:01:28;1.80;;;0.70;;
29816;SDS011;16805;52.956;5.906;2023-07-29T13:03:54;5.25;;;1.10;;
29816;SDS011;16805;52.956;5.906;2023-07-29T13:06:21;1.10;;;0.77;;
29816;SDS011;16805;52.956;5.906;2023-07-29T13:08:47;3.63;;;1.10;;
29816;SDS011;16805;52.956;5.906;2023-07-29T13:11:16;2.90;;;1.13;;
29816;SDS011;16805;52.956;5.906;2023-07-29T13:13:42;1.23;;;0.90;;
29816;SDS011;16805;52.956;5.906;2023-07-29T13:16:08;1.98;;;1.15;;
29816;SDS011;16805;52.956;5.906;2023-07-29T13:18:34;2.55;;;1.15;;
29816;SDS011;16805;52.956;5.906;2023-07-29T13:21:00;4.10;;;1.30;;
29816;SDS011;16805;52.956;5.906;2023-07-29T13:23:26;2.33;;;1.08;;
29816;SDS011;16805;52.956;5.906;2023-07-29T13:25:53;1.75;;;0.95;;
29816;SDS011;16805;52.956;5.906;2023-07-29T13:28:18;3.75;;;1.10;;
29816;SDS011;16805;52.956;5.906;2023-07-29T13:30:44;2.17;;;0.90;;
29816;SDS011;16805;52.956;5.906;2023-07-29T13:33:10;1.27;;;0.93;;
29816;SDS011;16805;52.956;5.906;2023-07-29T13:35:36;1.80;;;1.23;;
29816;SDS011;16805;52.956;5.906;2023-07-29T13:38:02;1.45;;;1.08;;
29816;SDS011;16805;52.956;5.906;2023-07-29T13:40:28;1.67;;;1.00;;
29816;SDS011;16805;52.956;5.906;2023-07-29T13:42:54;3.28;;;0.90;;
29816;SDS011;16805;52.956;5.906;2023-07-29T13:45:20;2.20;;;0.90;;
29816;SDS011;16805;52.956;5.906;2023-07-29T13:47:46;2.00;;;0.90;;
29816;SDS011;16805;52.956;5.906;2023-07-29T13:50:13;1.63;;;0.93;;
29816;SDS011;16805;52.956;5.906;2023-07-29T13:52:38;6.07;;;1.05;;
29816;SDS011;16805;52.956;5.906;2023-07-29T13:55:04;3.35;;;0.80;;
29816;SDS011;16805;52.956;5.906;2023-07-29T13:57:31;1.80;;;0.73;;
29816;SDS011;16805;52.956;5.906;2023-07-29T13:59:58;1.67;;;0.85;;
29816;SDS011;16805;52.956;5.906;2023-07-29T14:02:24;1.13;;;0.50;;
29816;SDS011;16805;52.956;5.906;2023-07-29T14:04:53;1.40;;;0.60;;
29816;SDS011;16805;52.956;5.906;2023-07-29T14:07:18;2.30;;;0.57;;
29816;SDS011;16805;52.956;5.906;2023-07-29T14:09:44;1.50;;;0.73;;
29816;SDS011;16805;52.956;5.906;2023-07-29T14:12:10;1.75;;;0.50;;
29816;SDS011;16805;52.956;5.906;2023-07-29T14:14:37;1.50;;;0.90;;
29816;SDS011;16805;52.956;5.906;2023-07-29T14:17:03;1.42;;;0.60;;
29816;SDS011;16805;52.956;5.906;2023-07-29T14:19:30;0.40;;;0.40;;
29816;SDS011;16805;52.956;5.906;2023-07-29T14:21:56;1.63;;;0.50;;
29816;SDS011;16805;52.956;5.906;2023-07-29T14:24:22;0.95;;;0.55;;
29816;SDS011;16805;52.956;5.906;2023-07-29T14:26:48;2.83;;;0.43;;
29816;SDS011;16805;52.956;5.906;2023-07-29T14:29:14;1.55;;;0.70;;
29816;SDS011;16805;52.956;5.906;2023-07-29T14:31:40;1.02;;;0.50;;
29816;SDS011;16805;52.956;5.906;2023-07-29T14:34:06;0.70;;;0.40;;
29816;SDS011;16805;52.956;5.906;2023-07-29T14:36:32;7.72;;;0.70;;
29816;SDS011;16805;52.956;5.906;2023-07-29T14:38:57;1.80;;;0.65;;
29816;SDS011;16805;52.956;5.906;2023-07-29T14:41:23;2.67;;;0.50;;
29816;SDS011;16805;52.956;5.906;2023-07-29T14:43:49;3.20;;;0.60;;
29816;SDS011;16805;52.956;5.906;2023-07-29T14:46:15;1.48;;;0.52;;
29816;SDS011;16805;52.956;5.906;2023-07-29T14:48:40;2.33;;;0.57;;
29816;SDS011;16805;52.956;5.906;2023-07-29T14:51:06;1.85;;;0.55;;
29816;SDS011;16805;52.956;5.906;2023-07-29T14:53:32;0.68;;;0.50;;
29816;SDS011;16805;52.956;5.906;2023-07-29T14:55:58;1.27;;;0.50;;
29816;SDS011;16805;52.956;5.906;2023-07-29T14:58:23;0.75;;;0.60;;
29816;SDS011;16805;52.956;5.906;2023-07-29T15:00:50;1.35;;;0.45;;
29816;SDS011;16805;52.956;5.906;2023-07-29T15:03:19;1.35;;;0.40;;
29816;SDS011;16805;52.956;5.906;2023-07-29T15:05:45;1.02;;;0.50;;
29816;SDS011;16805;52.956;5.906;2023-07-29T15:08:11;0.65;;;0.40;;